Flight Track Log - Related Links

Times and Time Zones

All times are in EDT time to prevent confusion due to time zone crossing. See the ASH2854 flight status page for this flight to view local times or setup timezone preferences in your user account.

Time Position Orientation Groundspeed Altitude Reporting Facility
EDT Latitude Longitude Course Direction KTS MPH feet Rate Location/Type
Tue 02:12:42 PM 35.1908 -80.9356 182° South 160 184 1,700  Level Atlanta Center
Tue 02:13:18 PM 35.1594 -80.9369 182° South 177 204 2,600 1,856 Climbing Atlanta Center
Tue 02:14:19 PM 35.0981 -80.9772 208° Southwest 288 331 4,700 2,628 Climbing Atlanta Center
Tue 02:15:19 PM 35.1125 -81.0606 282° West 282 325 7,900 2,357 Climbing Atlanta Center
Tue 02:15:43 PM 35.1333 -81.0622 356° North 290 334 8,000 1,143 Climbing Atlanta Center
Tue 02:16:43 PM 35.2033 -81.0192 27° Northeast 275 316 9,500 1,800 Climbing Atlanta Center
Tue 02:17:43 PM 35.2769 -80.9631 32° Northeast 280 322 11,600 2,250 Climbing Atlanta Center
Tue 02:18:43 PM 35.3567 -80.8964 34° Northeast 309 356 14,000 2,400 Climbing Atlanta Center
Tue 02:19:43 PM 35.4544 -80.8825 North 333 383 16,400 2,300 Climbing Atlanta Center
Tue 02:20:43 PM 35.5544 -80.8811 North 340 391 18,600 2,050 Climbing Atlanta Center
Tue 02:21:43 PM 35.6569 -80.8847 358° North 351 404 20,500 1,850 Climbing Atlanta Center
Tue 02:22:43 PM 35.7672 -80.8806 North 374 430 22,300 1,250 Climbing Atlanta Center
Tue 02:23:43 PM 35.8775 -80.8661 North 386 444 23,000 350 Climbing Atlanta Center
Tue 02:24:43 PM 36.0106 -80.8506 North 423 487 23,000  Level Atlanta Center
Tue 02:25:43 PM 36.1417 -80.8350 North 448 516 23,000  Level Atlanta Center
Tue 02:26:43 PM 36.2706 -80.8172 North 460 529 23,000  Level Atlanta Center
Tue 02:27:43 PM 36.4036 -80.8014 North 466 536 23,000  Level Atlanta Center
Tue 02:28:43 PM 36.5322 -80.7833 North 466 536 23,000  Level Atlanta Center
Tue 02:29:43 PM 36.6653 -80.7675 North 471 542 23,000  Level Atlanta Center
Tue 02:30:43 PM 36.7922 -80.7519 North 466 536 23,000  Level Atlanta Center
Tue 02:31:43 PM 36.9211 -80.7361 North 461 531 23,000  Level Atlanta Center
Tue 02:32:43 PM 37.0519 -80.7203 North 461 531 23,000  Level Atlanta Center
Tue 02:33:43 PM 37.1731 -80.6528 24° Northeast 461 531 23,000  Level Atlanta Center
Tue 02:35:49 PM 37.3903 -80.4764 33° Northeast 469 540 23,000  Level Washington Center
Tue 02:36:52 PM 37.5025 -80.3903 31° Northeast 470 541 23,000  Level Washington Center
Tue 02:37:53 PM 37.6361 -80.2828 32° Northeast 472 543 23,000  Level Washington Center
Tue 02:38:57 PM 37.7492 -80.1939 32° Northeast 473 544 23,000  Level Washington Center
Tue 02:39:58 PM 37.8628 -80.1036 32° Northeast 475 547 23,000  Level Washington Center
Tue 02:41:02 PM 37.9758 -80.0122 32° Northeast 476 548 23,000  Level Washington Center
Tue 02:42:04 PM 38.0828 -79.9117 36° Northeast 480 552 23,000  Level Washington Center
Tue 02:43:04 PM 38.1661 -79.7767 52° Northeast 486 559 23,000  Level Washington Center
Tue 02:44:08 PM 38.2483 -79.6428 52° Northeast 484 557 23,000  Level Washington Center
Tue 02:45:09 PM 38.3431 -79.4786 54° Northeast 479 551 23,000  Level Washington Center
Tue 02:46:10 PM 38.4200 -79.3392 55° Northeast 479 551 23,000  Level Washington Center
Tue 02:47:13 PM 38.4992 -79.2017 54° Northeast 479 551 23,000  Level Washington Center
Tue 02:48:17 PM 38.6269 -79.1175 27° Northeast 475 547 23,000  Level Washington Center
Tue 02:49:17 PM 38.7558 -79.0914 North 469 540 23,000  Level Washington Center
Tue 02:50:21 PM 38.8694 -79.0264 24° Northeast 459 528 23,000  Level Washington Center
Tue 02:51:22 PM 38.9608 -78.9047 46° Northeast 468 539 23,000  Level Washington Center
Tue 02:52:26 PM 39.0517 -78.7814 46° Northeast 470 541 23,000  Level Washington Center
Tue 02:53:26 PM 39.1417 -78.6564 47° Northeast 471 542 23,000  Level Washington Center
Tue 02:54:30 PM 39.2517 -78.5067 46° Northeast 475 547 23,000  Level Washington Center
Tue 02:55:31 PM 39.3425 -78.3806 47° Northeast 475 547 23,000 -98 Level Washington Center
Tue 02:56:33 PM 39.4336 -78.2553 47° Northeast 475 547 22,800 -1,008 Descending Washington Center
Tue 02:57:36 PM 39.5214 -78.1331 47° Northeast 468 539 20,900 -1,790 Descending Washington Center
Tue 02:58:37 PM 39.6081 -78.0125 47° Northeast 462 532 19,100 -1,065 Descending Washington Center
Tue 02:59:40 PM 39.6933 -77.8914 48° Northeast 455 524 18,700 -1,118 Descending Washington Center
Tue 03:00:19 PM 39.7467 -77.8186 46° Northeast 453 521 17,200 -2,182 Descending New York Center
Tue 03:01:19 PM 39.8281 -77.7078 46° Northeast 436 502 15,100 -1,412 Descending New York Center
Tue 03:02:18 PM 39.9103 -77.5858 49° Northeast 414 476 14,400 -1,613 Descending New York Center
Tue 03:03:18 PM 39.9739 -77.4944 48° Northeast 398 458 11,900 -2,300 Descending New York Center
Tue 03:04:18 PM 40.0481 -77.4014 44° Northeast 350 403 9,800 -2,319 Descending New York Center
Tue 03:05:17 PM 40.0997 -77.3331 45° Northeast 304 350 7,300 -2,579 Descending New York Center
Tue 03:06:19 PM 40.1625 -77.2547 44° Northeast 284 327 4,600 -1,561 Descending New York Center
Tue 03:07:20 PM 40.2081 -77.1856 49° Northeast 284 327 4,100 -350 Descending New York Center
Tue 03:08:19 PM 40.2400 -77.0933 66° East 256 295 3,900 -513 Descending New York Center
Tue 03:09:17 PM 40.2583 -77.0269 70° East 233 268 3,100 -706 Descending New York Center
Tue 03:10:18 PM 40.2603 -76.9481 88° East 228 262 2,500 -590 Descending New York Center

Login

Don't have an account? Register now (free) for customized features, flight alerts, and more!